createdAt,value
2018-10-01T00:01:14.912Z,7.83
2018-10-01T00:03:42.244Z,4.53
2018-10-01T00:06:09.547Z,4.90
2018-10-01T00:08:36.872Z,5.63
2018-10-01T00:11:04.256Z,5.10
2018-10-01T00:13:31.568Z,7.07
2018-10-01T00:15:58.901Z,6.53
2018-10-01T00:18:26.228Z,7.50
2018-10-01T00:20:53.613Z,6.80
2018-10-01T00:23:20.940Z,7.23
2018-10-01T00:25:48.279Z,6.47
2018-10-01T00:28:15.584Z,6.20
2018-10-01T00:30:42.894Z,5.97
2018-10-01T00:33:10.225Z,5.73
2018-10-01T00:35:37.548Z,5.80
2018-10-01T00:38:04.874Z,5.83
2018-10-01T00:40:32.202Z,6.63
2018-10-01T00:42:59.542Z,6.20
2018-10-01T00:45:26.876Z,7.40
2018-10-01T00:47:54.195Z,8.23
2018-10-01T00:50:21.503Z,6.30
2018-10-01T00:52:48.842Z,7.10
2018-10-01T00:55:16.160Z,7.20
2018-10-01T00:57:43.479Z,7.10
2018-10-01T01:00:11.028Z,6.87
2018-10-01T01:02:38.333Z,7.33
2018-10-01T01:05:05.689Z,7.50
2018-10-01T01:07:33.005Z,5.90
2018-10-01T01:10:00.336Z,7.03
2018-10-01T01:12:27.672Z,7.50
2018-10-01T01:14:54.994Z,7.07
2018-10-01T01:17:22.315Z,7.20
2018-10-01T01:19:49.640Z,6.30
2018-10-01T01:22:16.985Z,7.17
2018-10-01T01:24:44.316Z,8.00
2018-10-01T01:27:11.624Z,6.63
2018-10-01T01:29:38.940Z,6.83
2018-10-01T01:32:06.286Z,7.03
2018-10-01T01:34:33.600Z,8.43
2018-10-01T01:37:00.925Z,9.80
2018-10-01T01:39:28.237Z,9.43
2018-10-01T01:41:55.568Z,9.50
2018-10-01T01:44:22.871Z,11.20
2018-10-01T01:46:50.205Z,10.47
2018-10-01T01:49:17.507Z,10.30
2018-10-01T01:51:44.846Z,9.33
2018-10-01T01:54:12.155Z,9.20
2018-10-01T01:56:39.489Z,10.60
2018-10-01T01:59:06.791Z,10.73
2018-10-01T02:01:34.121Z,10.70
2018-10-01T02:04:01.457Z,10.83
2018-10-01T02:06:28.787Z,11.00
2018-10-01T02:08:56.109Z,11.37
2018-10-01T02:11:23.444Z,12.80
2018-10-01T02:13:50.806Z,12.10
2018-10-01T02:16:18.110Z,11.23
2018-10-01T02:18:45.473Z,12.40
2018-10-01T02:21:12.810Z,12.10
2018-10-01T02:23:40.120Z,13.13
2018-10-01T02:26:07.475Z,12.50
2018-10-01T02:28:34.816Z,12.40
2018-10-01T02:31:02.177Z,13.13
2018-10-01T02:33:29.522Z,12.60
2018-10-01T02:35:56.828Z,12.77
2018-10-01T02:38:24.179Z,14.47
2018-10-01T02:40:51.558Z,12.87
2018-10-01T02:43:18.863Z,12.80
2018-10-01T02:45:46.213Z,12.97
2018-10-01T02:48:13.548Z,13.20
2018-10-01T02:50:40.869Z,13.87
2018-10-01T02:53:08.199Z,13.23
2018-10-01T02:55:35.532Z,12.77
2018-10-01T02:58:02.856Z,13.83
2018-10-01T03:00:30.176Z,12.80
2018-10-01T03:02:57.521Z,12.03
2018-10-01T03:05:24.848Z,13.13
2018-10-01T03:07:52.169Z,13.27
2018-10-01T03:10:19.511Z,13.40
2018-10-01T03:12:46.832Z,13.03
2018-10-01T03:15:14.152Z,12.37
2018-10-01T03:17:41.465Z,13.80
2018-10-01T03:20:08.647Z,12.73
2018-10-01T03:22:35.922Z,12.23
2018-10-01T03:25:03.269Z,12.77
2018-10-01T03:27:30.636Z,13.40
2018-10-01T03:30:00.747Z,12.93
2018-10-01T03:32:28.093Z,12.43
2018-10-01T03:34:55.429Z,12.60
2018-10-01T03:37:22.764Z,12.70
2018-10-01T03:39:50.111Z,13.07
2018-10-01T03:42:17.451Z,12.90
2018-10-01T03:44:44.895Z,14.30
2018-10-01T03:47:12.240Z,14.53
2018-10-01T03:49:39.571Z,12.37
2018-10-01T03:52:06.936Z,13.50
2018-10-01T03:54:34.292Z,13.30
2018-10-01T03:57:01.663Z,13.97
2018-10-01T03:59:29.001Z,13.30
2018-10-01T04:01:56.351Z,14.60
2018-10-01T04:04:23.692Z,12.03
2018-10-01T04:06:51.076Z,15.17
2018-10-01T04:09:18.448Z,13.77
2018-10-01T04:11:45.789Z,14.57
2018-10-01T04:14:13.120Z,14.10
2018-10-01T04:16:40.492Z,14.10
2018-10-01T04:19:07.847Z,15.37
2018-10-01T04:21:35.168Z,15.03
2018-10-01T04:24:02.508Z,16.33
2018-10-01T04:26:29.855Z,14.67
2018-10-01T04:28:57.187Z,15.70
2018-10-01T04:31:24.558Z,15.87
2018-10-01T04:33:51.918Z,17.90
2018-10-01T04:36:19.335Z,15.23
2018-10-01T04:38:46.758Z,15.70
2018-10-01T04:41:14.089Z,16.03
2018-10-01T04:43:41.428Z,16.17
2018-10-01T04:46:08.763Z,17.30
2018-10-01T04:48:36.097Z,16.70
2018-10-01T04:51:03.447Z,15.83
2018-10-01T04:53:30.793Z,18.93
2018-10-01T04:55:58.128Z,17.97
2018-10-01T04:58:25.668Z,18.40
2018-10-01T05:00:52.790Z,19.57
2018-10-01T05:03:20.149Z,19.03
2018-10-01T05:05:47.502Z,20.40
2018-10-01T05:08:14.833Z,20.73
2018-10-01T05:10:42.171Z,20.83
2018-10-01T05:13:09.479Z,19.67
2018-10-01T05:15:36.812Z,20.87
2018-10-01T05:18:04.136Z,20.43
2018-10-01T05:20:31.462Z,18.97
2018-10-01T05:22:58.790Z,18.67
2018-10-01T05:25:26.125Z,18.87
2018-10-01T05:27:53.480Z,18.63
2018-10-01T05:30:20.805Z,18.80
2018-10-01T05:32:48.121Z,18.33
2018-10-01T05:35:15.446Z,17.60
2018-10-01T05:37:42.841Z,18.10
2018-10-01T05:40:10.119Z,18.40
2018-10-01T05:42:37.479Z,19.80
2018-10-01T05:45:04.902Z,19.13
2018-10-01T05:47:32.228Z,18.80
2018-10-01T05:49:59.541Z,19.17
2018-10-01T05:52:26.915Z,19.17
2018-10-01T05:54:54.230Z,18.00
2018-10-01T05:57:21.540Z,18.97
2018-10-01T05:59:48.856Z,18.97
2018-10-01T06:02:16.180Z,18.27
2018-10-01T06:04:43.546Z,19.50
2018-10-01T06:07:10.864Z,19.67
2018-10-01T06:09:38.882Z,19.40
2018-10-01T06:12:06.379Z,19.13
2018-10-01T06:14:33.708Z,20.23
2018-10-01T06:17:01.037Z,19.60
2018-10-01T06:19:28.401Z,22.37
2018-10-01T06:21:55.737Z,20.27
2018-10-01T06:24:23.085Z,19.97
2018-10-01T06:26:50.411Z,21.10
2018-10-01T06:29:17.767Z,21.83
2018-10-01T06:31:45.127Z,20.47
2018-10-01T06:34:12.472Z,21.30
2018-10-01T06:36:39.818Z,20.63
2018-10-01T06:39:07.585Z,21.10
2018-10-01T06:41:34.986Z,19.10
2018-10-01T06:44:02.272Z,20.63
2018-10-01T06:46:29.604Z,20.20
2018-10-01T06:48:56.920Z,21.10
2018-10-01T06:51:24.283Z,20.27
2018-10-01T06:53:51.620Z,20.07
2018-10-01T06:56:18.932Z,22.13
2018-10-01T06:58:46.255Z,19.27
2018-10-01T07:01:13.637Z,20.53
2018-10-01T07:03:40.940Z,19.50
2018-10-01T07:06:08.264Z,20.23
2018-10-01T07:08:35.610Z,20.30
2018-10-01T07:11:03.099Z,19.20
2018-10-01T07:13:30.441Z,19.70
2018-10-01T07:15:57.827Z,19.50
2018-10-01T07:18:25.124Z,21.17
2018-10-01T07:20:52.479Z,18.13
2018-10-01T07:23:19.902Z,18.80
2018-10-01T07:25:47.167Z,18.20
2018-10-01T07:28:14.500Z,18.93
2018-10-01T07:30:41.819Z,18.90
2018-10-01T07:33:09.171Z,17.53
2018-10-01T07:35:36.492Z,17.37
2018-10-01T07:38:03.850Z,17.20
2018-10-01T07:40:31.172Z,17.20
2018-10-01T07:42:58.519Z,16.20
2018-10-01T07:45:25.964Z,15.73
2018-10-01T07:47:53.164Z,16.20
2018-10-01T07:50:20.495Z,14.27
2018-10-01T07:52:47.852Z,16.27
2018-10-01T07:55:15.189Z,15.97
2018-10-01T07:57:42.503Z,14.50
2018-10-01T08:00:10.038Z,15.47
2018-10-01T08:02:37.244Z,14.33
2018-10-01T08:05:04.571Z,13.90
2018-10-01T08:07:31.902Z,13.43
2018-10-01T08:09:59.252Z,12.80
2018-10-01T08:12:26.589Z,13.33
2018-10-01T08:14:53.941Z,13.90
2018-10-01T08:17:21.272Z,13.00
2018-10-01T08:19:48.635Z,12.03
2018-10-01T08:22:15.997Z,13.70
2018-10-01T08:24:43.357Z,13.10
2018-10-01T08:27:10.693Z,10.20
2018-10-01T08:29:38.040Z,11.37
2018-10-01T08:32:05.397Z,9.73
2018-10-01T08:34:32.691Z,7.77
2018-10-01T08:37:00.019Z,7.63
2018-10-01T08:39:27.335Z,6.30
2018-10-01T08:41:54.658Z,5.20
2018-10-01T08:44:22.060Z,5.37
2018-10-01T08:46:49.376Z,5.37
2018-10-01T08:49:16.689Z,3.87
2018-10-01T08:51:44.064Z,3.40
2018-10-01T08:54:11.343Z,3.83
2018-10-01T08:56:39.172Z,4.70
2018-10-01T08:59:06.553Z,4.17
2018-10-01T09:01:33.833Z,4.00
2018-10-01T09:04:01.249Z,4.20
2018-10-01T09:06:28.649Z,3.67
2018-10-01T09:08:55.975Z,4.43
2018-10-01T09:11:23.331Z,4.57
2018-10-01T09:13:50.658Z,4.97
2018-10-01T09:16:17.984Z,4.67
2018-10-01T09:18:45.298Z,3.73
2018-10-01T09:21:12.741Z,4.50
2018-10-01T09:23:40.037Z,3.93
2018-10-01T09:26:07.390Z,3.47
2018-10-01T09:28:34.715Z,3.47
2018-10-01T09:31:02.145Z,3.60
2018-10-01T09:33:29.386Z,4.00
2018-10-01T09:35:56.744Z,3.40
2018-10-01T09:38:24.113Z,4.97
2018-10-01T09:40:51.415Z,4.50
2018-10-01T09:43:18.776Z,4.80
2018-10-01T09:45:46.091Z,5.10
2018-10-01T09:48:13.452Z,5.30
2018-10-01T09:50:40.787Z,4.97
2018-10-01T09:53:08.214Z,5.43
2018-10-01T09:55:35.505Z,5.00
2018-10-01T09:58:02.877Z,5.73
2018-10-01T10:00:30.209Z,5.10
2018-10-01T10:02:57.582Z,4.90
2018-10-01T10:05:24.903Z,3.50
2018-10-01T10:07:52.235Z,3.90
2018-10-01T10:10:19.564Z,4.23
2018-10-01T10:12:46.909Z,3.60
2018-10-01T10:15:14.261Z,4.30
2018-10-01T10:17:41.601Z,4.00
2018-10-01T10:20:08.991Z,4.90
2018-10-01T10:22:36.289Z,4.77
2018-10-01T10:25:03.566Z,5.20
2018-10-01T10:27:30.906Z,4.60
2018-10-01T10:29:58.223Z,4.67
2018-10-01T10:32:25.594Z,4.20
2018-10-01T10:34:52.879Z,5.17
2018-10-01T10:37:20.202Z,4.30
2018-10-01T10:39:47.536Z,4.60
2018-10-01T10:42:14.876Z,3.90
2018-10-01T10:44:42.267Z,3.93
2018-10-01T10:47:09.584Z,4.23
2018-10-01T10:49:36.939Z,3.80
2018-10-01T10:52:04.275Z,4.70
2018-10-01T10:54:31.615Z,3.90
2018-10-01T10:56:59.089Z,3.93
2018-10-01T10:59:26.384Z,4.00
2018-10-01T11:01:53.708Z,4.57
2018-10-01T11:04:21.045Z,4.00
2018-10-01T11:06:48.379Z,4.63
2018-10-01T11:09:15.680Z,4.33
2018-10-01T11:11:43.029Z,4.13
2018-10-01T11:14:10.504Z,4.33
2018-10-01T11:16:37.720Z,4.17
2018-10-01T11:19:05.348Z,3.40
2018-10-01T11:21:32.612Z,3.10
2018-10-01T11:23:59.883Z,3.33
2018-10-01T11:26:27.207Z,3.67
2018-10-01T11:28:54.649Z,3.50
2018-10-01T11:31:21.955Z,2.83
2018-10-01T11:33:49.213Z,2.70
2018-10-01T11:36:16.544Z,2.60
2018-10-01T11:38:43.862Z,2.80
2018-10-01T11:41:11.185Z,2.20
2018-10-01T11:43:38.516Z,2.50
2018-10-01T11:46:05.840Z,3.80
2018-10-01T11:48:33.146Z,2.90
2018-10-01T11:51:00.543Z,3.17
2018-10-01T11:53:27.843Z,2.80
2018-10-01T11:55:55.160Z,3.03
2018-10-01T11:58:22.473Z,2.90
2018-10-01T12:00:49.834Z,2.90
2018-10-01T12:03:17.280Z,2.50
2018-10-01T12:05:44.537Z,2.20
2018-10-01T12:08:11.945Z,1.83
2018-10-01T12:10:39.287Z,1.90
2018-10-01T12:13:06.505Z,1.90
2018-10-01T12:15:33.837Z,2.17
2018-10-01T12:18:01.136Z,1.90
2018-10-01T12:20:28.471Z,2.57
2018-10-01T12:22:55.782Z,1.90
2018-10-01T12:25:23.084Z,2.03
2018-10-01T12:27:50.445Z,2.50
2018-10-01T12:30:17.864Z,1.90
2018-10-01T12:32:45.176Z,1.70
2018-10-01T12:35:12.650Z,1.20
2018-10-01T12:37:39.841Z,1.77
2018-10-01T12:40:07.181Z,1.60
2018-10-01T12:42:34.533Z,1.70
2018-10-01T12:45:01.935Z,1.60
2018-10-01T12:47:29.192Z,2.10
2018-10-01T12:49:56.511Z,1.70
2018-10-01T12:52:23.835Z,1.60
2018-10-01T12:54:51.156Z,1.23
2018-10-01T12:57:18.614Z,1.30
2018-10-01T12:59:45.803Z,1.70
2018-10-01T13:02:13.131Z,1.43
2018-10-01T13:04:40.457Z,1.60
2018-10-01T13:07:07.782Z,1.47
2018-10-01T13:09:35.114Z,1.57
2018-10-01T13:12:02.498Z,1.50
2018-10-01T13:14:29.782Z,1.50
2018-10-01T13:16:57.116Z,1.73
2018-10-01T13:19:24.429Z,1.37
2018-10-01T13:21:51.774Z,1.53
2018-10-01T13:24:19.211Z,1.23
2018-10-01T13:26:46.446Z,1.30
2018-10-01T13:29:13.777Z,1.30
2018-10-01T13:31:41.136Z,1.63
2018-10-01T13:34:08.445Z,1.30
2018-10-01T13:36:35.836Z,2.00
2018-10-01T13:39:04.316Z,1.80
2018-10-01T13:41:31.631Z,1.37
2018-10-01T13:43:59.031Z,1.50
2018-10-01T13:46:26.344Z,1.60
2018-10-01T13:48:53.667Z,1.40
2018-10-01T13:51:21.034Z,1.47
2018-10-01T13:53:48.375Z,1.70
2018-10-01T13:56:15.706Z,1.50
2018-10-01T13:58:43.053Z,1.40
2018-10-01T14:01:10.391Z,1.63
2018-10-01T14:03:37.726Z,1.57
2018-10-01T14:06:05.097Z,1.50
2018-10-01T14:08:32.369Z,1.50
2018-10-01T14:10:59.688Z,1.70
2018-10-01T14:13:27.223Z,1.70
2018-10-01T14:15:54.311Z,1.80
2018-10-01T14:18:21.688Z,1.70
2018-10-01T14:20:49.005Z,1.70
2018-10-01T14:23:16.342Z,1.77
2018-10-01T14:25:43.686Z,1.43
2018-10-01T14:28:10.999Z,1.90
2018-10-01T14:30:38.420Z,2.53
2018-10-01T14:33:05.752Z,1.60
2018-10-01T14:35:33.066Z,1.83
2018-10-01T14:38:00.405Z,2.17
2018-10-01T14:40:27.740Z,2.30
2018-10-01T14:42:55.090Z,2.07
2018-10-01T14:45:22.362Z,2.13
2018-10-01T14:47:49.741Z,1.77
2018-10-01T14:50:17.043Z,1.80
2018-10-01T14:52:44.371Z,1.30
2018-10-01T14:55:11.685Z,1.87
2018-10-01T14:57:39.033Z,1.13
2018-10-01T15:00:06.518Z,1.40
2018-10-01T15:02:33.794Z,1.60
2018-10-01T15:05:01.106Z,1.70
2018-10-01T15:07:28.423Z,1.60
2018-10-01T15:09:55.781Z,2.13
2018-10-01T15:12:23.125Z,1.93
2018-10-01T15:14:50.621Z,1.80
2018-10-01T15:17:17.926Z,1.53
2018-10-01T15:19:45.270Z,1.73
2018-10-01T15:22:12.609Z,1.30
2018-10-01T15:24:40.052Z,1.60
2018-10-01T15:27:07.415Z,1.83
2018-10-01T15:29:34.783Z,1.57
2018-10-01T15:32:02.107Z,1.70
2018-10-01T15:34:29.453Z,1.77
2018-10-01T15:36:56.813Z,1.60
2018-10-01T15:39:24.140Z,2.23
2018-10-01T15:41:51.498Z,1.70
2018-10-01T15:44:18.917Z,1.63
2018-10-01T15:46:46.147Z,1.70
2018-10-01T15:49:13.470Z,1.50
2018-10-01T15:51:40.794Z,1.83
2018-10-01T15:54:08.121Z,1.70
2018-10-01T15:56:35.439Z,1.97
2018-10-01T15:59:02.805Z,2.03
2018-10-01T16:01:30.183Z,1.50
2018-10-01T16:03:57.577Z,2.23
2018-10-01T16:06:24.932Z,3.37
2018-10-01T16:08:52.293Z,2.40
2018-10-01T16:11:19.811Z,2.30
2018-10-01T16:13:47.110Z,2.00
2018-10-01T16:16:14.511Z,2.53
2018-10-01T16:18:41.828Z,1.67
2018-10-01T16:21:09.204Z,2.10
2018-10-01T16:23:36.503Z,1.87
2018-10-01T16:26:03.889Z,2.30
2018-10-01T16:28:31.319Z,1.77
2018-10-01T16:30:58.709Z,2.50
2018-10-01T16:33:26.070Z,2.30
2018-10-01T16:35:53.375Z,1.77
2018-10-01T16:38:20.698Z,2.03
2018-10-01T16:40:48.056Z,1.90
2018-10-01T16:43:15.432Z,1.90
2018-10-01T16:45:42.860Z,2.27
2018-10-01T16:48:10.240Z,1.87
2018-10-01T16:50:37.559Z,1.73
2018-10-01T16:53:04.904Z,1.70
2018-10-01T16:55:32.236Z,1.70
2018-10-01T16:57:59.584Z,1.73
2018-10-01T17:00:26.917Z,2.00
2018-10-01T17:02:54.261Z,2.03
2018-10-01T17:05:21.580Z,2.57
2018-10-01T17:07:48.916Z,1.60
2018-10-01T17:10:16.253Z,2.00
2018-10-01T17:12:43.592Z,2.00
2018-10-01T17:15:10.972Z,1.90
2018-10-01T17:17:38.277Z,2.60
2018-10-01T17:20:05.619Z,2.33
2018-10-01T17:22:33.584Z,2.53
2018-10-01T17:25:00.911Z,2.90
2018-10-01T17:27:28.235Z,2.37
2018-10-01T17:29:55.586Z,2.27
2018-10-01T17:32:22.951Z,2.60
2018-10-01T17:34:50.281Z,2.40
2018-10-01T17:37:17.657Z,2.40
2018-10-01T17:39:44.981Z,2.83
2018-10-01T17:42:12.404Z,1.63
2018-10-01T17:44:39.732Z,1.43
2018-10-01T17:47:07.068Z,1.23
2018-10-01T17:49:34.416Z,1.20
2018-10-01T17:52:01.769Z,1.40
2018-10-01T17:54:29.076Z,1.43
2018-10-01T17:56:56.720Z,1.60
2018-10-01T17:59:24.082Z,1.60
2018-10-01T18:01:51.415Z,1.90
2018-10-01T18:04:19.004Z,1.30
2018-10-01T18:06:46.247Z,2.30
2018-10-01T18:09:13.556Z,1.23
2018-10-01T18:11:40.916Z,2.00
2018-10-01T18:14:08.225Z,1.63
2018-10-01T18:16:35.577Z,1.73
2018-10-01T18:19:02.900Z,1.80
2018-10-01T18:21:30.224Z,2.37
2018-10-01T18:23:57.577Z,1.87
2018-10-01T18:26:24.867Z,2.40
2018-10-01T18:28:52.224Z,1.97
2018-10-01T18:31:19.541Z,2.40
2018-10-01T18:33:46.870Z,2.07
2018-10-01T18:36:14.242Z,1.73
2018-10-01T18:38:41.536Z,2.00
2018-10-01T18:41:08.881Z,1.57
2018-10-01T18:43:36.242Z,1.63
2018-10-01T18:46:03.562Z,2.80
2018-10-01T18:48:30.871Z,2.50
2018-10-01T18:50:58.172Z,1.77
2018-10-01T18:53:25.495Z,1.70
2018-10-01T18:55:52.800Z,2.47
2018-10-01T18:58:20.196Z,2.40
2018-10-01T19:00:47.511Z,2.10
2018-10-01T19:03:14.857Z,1.80
2018-10-01T19:05:42.210Z,1.83
2018-10-01T19:08:09.736Z,2.17
2018-10-01T19:10:37.044Z,2.57
2018-10-01T19:13:04.382Z,2.00
2018-10-01T19:15:31.717Z,1.77
2018-10-01T19:17:59.112Z,2.60
2018-10-01T19:20:26.375Z,1.87
2018-10-01T19:22:53.680Z,2.07
2018-10-01T19:25:21.040Z,2.10
2018-10-01T19:27:48.352Z,2.73
2018-10-01T19:30:15.690Z,2.23
2018-10-01T19:32:43.063Z,2.17
2018-10-01T19:35:10.366Z,2.00
2018-10-01T19:37:37.672Z,1.73
2018-10-01T19:40:04.973Z,1.80
2018-10-01T19:42:32.379Z,1.90
2018-10-01T19:44:59.711Z,1.80
2018-10-01T19:47:27.029Z,1.77
2018-10-01T19:49:54.392Z,1.80
2018-10-01T19:52:21.759Z,1.53
2018-10-01T19:54:49.079Z,1.77
2018-10-01T19:57:16.405Z,1.67
2018-10-01T19:59:43.958Z,1.30
2018-10-01T20:02:11.566Z,1.20
2018-10-01T20:04:38.882Z,1.70
2018-10-01T20:07:06.190Z,1.87
2018-10-01T20:09:33.508Z,1.50
2018-10-01T20:12:00.825Z,1.43
2018-10-01T20:14:28.139Z,1.20
2018-10-01T20:16:55.490Z,1.30
2018-10-01T20:19:23.106Z,1.30
2018-10-01T20:21:50.474Z,1.80
2018-10-01T20:24:17.780Z,1.50
2018-10-01T20:26:45.198Z,1.70
2018-10-01T20:29:12.623Z,1.30
2018-10-01T20:31:39.709Z,1.70
2018-10-01T20:34:07.027Z,2.07
2018-10-01T20:36:34.437Z,2.10
2018-10-01T20:39:01.854Z,1.50
2018-10-01T20:41:29.206Z,1.70
2018-10-01T20:43:56.724Z,1.97
2018-10-01T20:46:24.056Z,1.70
2018-10-01T20:48:51.431Z,2.27
2018-10-01T20:51:18.716Z,2.50
2018-10-01T20:53:46.158Z,1.77
2018-10-01T20:56:13.436Z,2.63
2018-10-01T20:58:40.782Z,2.40
2018-10-01T21:01:08.058Z,2.37
2018-10-01T21:03:35.380Z,3.17
2018-10-01T21:06:02.711Z,3.00
2018-10-01T21:08:30.181Z,2.87
2018-10-01T21:10:57.423Z,3.53
2018-10-01T21:13:24.759Z,2.87
2018-10-01T21:15:52.120Z,3.80
2018-10-01T21:18:19.453Z,3.67
2018-10-01T21:20:46.804Z,3.30
2018-10-01T21:23:14.164Z,3.57
2018-10-01T21:25:41.490Z,3.07
2018-10-01T21:28:08.807Z,3.43
2018-10-01T21:30:36.233Z,3.07
2018-10-01T21:33:03.551Z,3.27
2018-10-01T21:35:30.876Z,2.77
2018-10-01T21:37:58.222Z,3.10
2018-10-01T21:40:25.529Z,3.20
2018-10-01T21:42:52.895Z,3.30
2018-10-01T21:45:20.232Z,3.70
2018-10-01T21:47:47.548Z,2.90
2018-10-01T21:50:14.863Z,3.00
2018-10-01T21:52:42.204Z,2.87
2018-10-01T21:55:09.511Z,3.10
2018-10-01T21:57:36.858Z,3.13
2018-10-01T22:00:06.568Z,3.60
2018-10-01T22:02:33.882Z,3.60
2018-10-01T22:05:01.208Z,3.07
2018-10-01T22:07:28.513Z,3.43
2018-10-01T22:09:55.826Z,3.00
2018-10-01T22:12:23.906Z,2.83
2018-10-01T22:14:51.225Z,3.00
2018-10-01T22:17:18.560Z,3.20
2018-10-01T22:19:46.267Z,3.03
2018-10-01T22:22:13.634Z,2.97
2018-10-01T22:24:40.958Z,3.17
2018-10-01T22:27:08.307Z,2.70
2018-10-01T22:29:35.639Z,2.90
2018-10-01T22:32:02.948Z,2.80
2018-10-01T22:34:30.466Z,3.30
2018-10-01T22:36:57.780Z,3.60
2018-10-01T22:39:25.104Z,3.33
2018-10-01T22:41:52.440Z,2.47
2018-10-01T22:44:19.789Z,4.00
2018-10-01T22:46:47.092Z,2.80
2018-10-01T22:49:14.449Z,3.60
2018-10-01T22:51:42.639Z,3.23
2018-10-01T22:54:09.949Z,3.10
2018-10-01T22:56:37.287Z,3.90
2018-10-01T22:59:04.592Z,3.40
2018-10-01T23:01:31.900Z,3.63
2018-10-01T23:03:59.219Z,3.30
2018-10-01T23:06:26.527Z,3.67
2018-10-01T23:08:53.883Z,4.63
2018-10-01T23:11:21.203Z,3.70
2018-10-01T23:13:48.513Z,3.80
2018-10-01T23:16:15.847Z,4.00
2018-10-01T23:18:43.155Z,3.90
2018-10-01T23:21:10.464Z,4.20
2018-10-01T23:23:37.795Z,4.20
2018-10-01T23:26:05.155Z,4.00
2018-10-01T23:28:32.446Z,3.93
2018-10-01T23:30:59.768Z,5.23
2018-10-01T23:33:27.063Z,5.23
2018-10-01T23:35:54.395Z,4.33
2018-10-01T23:38:21.736Z,4.93
2018-10-01T23:40:49.047Z,4.17
2018-10-01T23:43:16.386Z,4.83
2018-10-01T23:45:43.695Z,4.50
2018-10-01T23:48:10.995Z,4.27
2018-10-01T23:50:38.341Z,4.00
2018-10-01T23:53:05.638Z,4.70
2018-10-01T23:55:32.943Z,4.57
2018-10-01T23:58:00.575Z,4.63
